Time;durP1;ratioP1;P1;durP2;ratioP2;P2;SDS_P1;SDS_P2;PMS_P1;PMS_P2;Temp;Humidity;BMP_temperature;BMP_pressure;BME280_temperature;BME280_humidity;BME280_pressure;Samples;Min_cycle;Max_cycle;Signal;HPM_P1;HPM_P2
2020/12/25 00:01:07;;;;;;;8.80;2.50;;;;;;;;;;4101625;28;20047;-56
2020/12/25 00:03:14;;;;;;;;;;;;;;;;;;4101137;28;20464;-55
2020/12/25 00:05:16;;;;;;;8.75;2.35;;;;;;;;;;4106410;28;20398;-48
2020/12/25 00:07:18;;;;;;;5.10;2.40;;;;;;;;;;4098745;28;20035;-57
2020/12/25 00:09:20;;;;;;;7.00;2.40;;;;;;;;;;4107371;28;20042;-59
2020/12/25 00:11:22;;;;;;;8.60;2.42;;;;;;;;;;4101898;28;20075;-58
2020/12/25 00:13:25;;;;;;;8.55;2.90;;;;;;;;;;4103894;28;20049;-58
2020/12/25 00:15:27;;;;;;;4.85;2.30;;;;;;;;;;4100991;28;20452;-60
2020/12/25 00:17:29;;;;;;;8.05;2.58;;;;;;;;;;4103172;28;20074;-57
2020/12/25 00:19:31;;;;;;;8.02;2.63;;;;;;;;;;4104296;28;20086;-60
2020/12/25 00:21:33;;;;;;;7.70;2.55;;;;;;;;;;4100768;28;20031;-60
2020/12/25 00:23:35;;;;;;;8.88;2.70;;;;;;;;;;4101435;28;20457;-59
2020/12/25 00:25:38;;;;;;;6.40;2.65;;;;;;;;;;4099922;28;20551;-57
2020/12/25 00:27:40;;;;;;;7.93;2.80;;;;;;;;;;4099262;28;20543;-57
2020/12/25 00:29:42;;;;;;;6.95;2.42;;;;;;;;;;4101330;28;20472;-57
2020/12/25 00:31:45;;;;;;;9.75;2.78;;;;;;;;;;4102318;28;20109;-56
2020/12/25 00:33:49;;;;;;;5.03;2.50;;;;;;;;;;4100209;28;20287;-56
2020/12/25 00:35:51;;;;;;;7.63;2.70;;;;;;;;;;4101597;28;20100;-57
2020/12/25 00:37:53;;;;;;;7.05;2.42;;;;;;;;;;4099332;28;20038;-58
2020/12/25 00:39:55;;;;;;;5.13;2.55;;;;;;;;;;4100487;28;20106;-58
2020/12/25 00:41:57;;;;;;;8.00;2.63;;;;;;;;;;4099794;28;20126;-57
2020/12/25 00:43:59;;;;;;;5.68;2.72;;;;;;;;;;4097978;28;20069;-56
2020/12/25 00:46:01;;;;;;;6.85;2.22;;;;;;;;;;4097598;28;20062;-57
2020/12/25 00:48:03;;;;;;;6.70;2.72;;;;;;;;;;4097654;28;20516;-56
2020/12/25 00:50:05;;;;;;;4.35;2.58;;;;;;;;;;4101051;28;20141;-57
2020/12/25 00:52:07;;;;;;;4.47;2.20;;;;;;;;;;4100541;28;20031;-58
2020/12/25 00:54:09;;;;;;;4.85;2.20;;;;;;;;;;4100648;28;20035;-58
2020/12/25 00:56:12;;;;;;;4.43;2.17;;;;;;;;;;4106451;28;20412;-55
2020/12/25 00:58:14;;;;;;;8.20;2.88;;;;;;;;;;4102630;28;20097;-58
2020/12/25 01:00:16;;;;;;;6.03;2.30;;;;;;;;;;4101993;28;20456;-57
2020/12/25 01:02:18;;;;;;;4.95;2.40;;;;;;;;;;4101606;28;20361;-58
2020/12/25 01:04:20;;;;;;;3.83;2.42;;;;;;;;;;4101791;28;20500;-58
2020/12/25 01:06:22;;;;;;;3.80;2.30;;;;;;;;;;4095090;28;20027;-57
2020/12/25 01:08:24;;;;;;;4.63;2.25;;;;;;;;;;4082877;28;20117;-56
2020/12/25 01:10:26;;;;;;;4.30;1.88;;;;;;;;;;4105545;28;20069;-57
2020/12/25 01:12:28;;;;;;;5.15;2.20;;;;;;;;;;4098589;28;20105;-56
2020/12/25 01:14:31;;;;;;;5.15;2.35;;;;;;;;;;4104050;28;20031;-59
2020/12/25 01:16:33;;;;;;;5.60;2.55;;;;;;;;;;4101013;28;20621;-57
2020/12/25 01:18:35;;;;;;;5.43;2.42;;;;;;;;;;4103173;28;20042;-58
2020/12/25 01:20:38;;;;;;;4.70;2.37;;;;;;;;;;4098592;28;20041;-57
2020/12/25 01:22:40;;;;;;;6.00;2.30;;;;;;;;;;4095738;28;20323;-58
2020/12/25 01:24:42;;;;;;;7.05;2.40;;;;;;;;;;4102541;28;20035;-57
2020/12/25 01:26:44;;;;;;;4.20;2.30;;;;;;;;;;4104459;28;20038;-57
2020/12/25 01:28:46;;;;;;;4.90;2.60;;;;;;;;;;4104451;28;20050;-59
2020/12/25 01:30:48;;;;;;;4.40;2.55;;;;;;;;;;4112026;28;20132;-58
2020/12/25 01:32:50;;;;;;;4.70;2.17;;;;;;;;;;4103469;28;20039;-58
2020/12/25 01:34:52;;;;;;;5.03;2.15;;;;;;;;;;4106195;28;20027;-56
2020/12/25 01:36:54;;;;;;;4.88;2.15;;;;;;;;;;4105849;28;20042;-57
2020/12/25 01:38:56;;;;;;;4.88;2.40;;;;;;;;;;4104055;28;20134;-58
2020/12/25 01:40:58;;;;;;;4.70;2.33;;;;;;;;;;4106027;28;20047;-58
2020/12/25 01:43:00;;;;;;;4.53;2.22;;;;;;;;;;4109389;28;20059;-58
2020/12/25 01:45:04;;;;;;;3.45;1.90;;;;;;;;;;4106714;28;20055;-55
2020/12/25 01:47:06;;;;;;;5.57;2.10;;;;;;;;;;4107794;28;20026;-56
2020/12/25 01:49:08;;;;;;;5.15;2.47;;;;;;;;;;4106865;28;20445;-57
2020/12/25 01:51:12;;;;;;;4.32;2.00;;;;;;;;;;4104649;28;20436;-56
2020/12/25 01:53:16;;;;;;;5.13;2.08;;;;;;;;;;4106055;28;20325;-55
2020/12/25 01:55:18;;;;;;;5.10;2.30;;;;;;;;;;4084888;28;20447;-59
2020/12/25 01:57:22;;;;;;;4.67;2.20;;;;;;;;;;4095030;28;20357;-56
2020/12/25 01:59:24;;;;;;;4.82;2.50;;;;;;;;;;4103858;28;20035;-57
2020/12/25 02:01:26;;;;;;;4.53;2.20;;;;;;;;;;4106284;28;20104;-57
2020/12/25 02:03:28;;;;;;;4.43;2.42;;;;;;;;;;4103092;28;20042;-56
2020/12/25 02:05:30;;;;;;;4.68;2.47;;;;;;;;;;4105595;28;20433;-56
2020/12/25 02:07:32;;;;;;;4.95;2.33;;;;;;;;;;4106670;28;20102;-57
2020/12/25 02:09:34;;;;;;;3.55;2.05;;;;;;;;;;4103295;28;20342;-58
2020/12/25 02:11:37;;;;;;;5.25;2.40;;;;;;;;;;4106167;28;20026;-57
2020/12/25 02:13:39;;;;;;;4.78;2.20;;;;;;;;;;4100044;28;20041;-58
2020/12/25 02:15:42;;;;;;;4.88;2.47;;;;;;;;;;4103974;28;20101;-57
2020/12/25 02:17:45;;;;;;;4.70;2.30;;;;;;;;;;4099185;28;20046;-58
2020/12/25 02:19:47;;;;;;;4.55;2.17;;;;;;;;;;4107873;28;20146;-57
2020/12/25 02:21:49;;;;;;;5.55;2.38;;;;;;;;;;4101733;28;20416;-59
2020/12/25 02:23:51;;;;;;;4.45;2.15;;;;;;;;;;4104527;28;21137;-58
2020/12/25 02:25:54;;;;;;;4.32;2.08;;;;;;;;;;4100640;28;20019;-58
2020/12/25 02:27:56;;;;;;;5.40;2.30;;;;;;;;;;4104501;28;20049;-57
2020/12/25 02:30:00;;;;;;;4.10;2.17;;;;;;;;;;4103145;28;20054;-56
2020/12/25 02:32:02;;;;;;;3.70;1.85;;;;;;;;;;4108014;28;20035;-57
2020/12/25 02:34:03;;;;;;;4.05;2.10;;;;;;;;;;4102335;28;20054;-58
2020/12/25 02:36:05;;;;;;;4.70;2.10;;;;;;;;;;4104088;28;20139;-56
2020/12/25 02:38:07;;;;;;;6.18;2.58;;;;;;;;;;4104555;28;20426;-58
2020/12/25 02:40:10;;;;;;;4.75;2.20;;;;;;;;;;4109765;28;20044;-58
2020/12/25 02:42:13;;;;;;;4.00;2.20;;;;;;;;;;4102260;28;20126;-58
2020/12/25 02:44:15;;;;;;;4.07;2.17;;;;;;;;;;4104357;28;20495;-57
2020/12/25 02:46:20;;;;;;;3.20;2.08;;;;;;;;;;4087798;28;20091;-57
2020/12/25 02:48:22;;;;;;;4.13;2.05;;;;;;;;;;4096124;28;20046;-55
2020/12/25 02:50:24;;;;;;;6.05;2.63;;;;;;;;;;4106330;28;20539;-56
2020/12/25 02:52:26;;;;;;;3.97;1.92;;;;;;;;;;4103497;28;20367;-56
2020/12/25 02:54:28;;;;;;;3.87;2.17;;;;;;;;;;4104957;28;20081;-57
2020/12/25 02:56:30;;;;;;;4.03;2.00;;;;;;;;;;4103191;28;20338;-58
2020/12/25 02:58:32;;;;;;;5.32;2.35;;;;;;;;;;4106002;28;20352;-58
2020/12/25 03:00:34;;;;;;;4.95;2.10;;;;;;;;;;4103139;28;20050;-58
2020/12/25 03:02:36;;;;;;;5.07;2.20;;;;;;;;;;4102218;28;20047;-59
2020/12/25 03:04:38;;;;;;;4.95;2.08;;;;;;;;;;4101860;28;20050;-59
2020/12/25 03:06:40;;;;;;;4.15;2.00;;;;;;;;;;4101940;28;20527;-57
2020/12/25 03:08:42;;;;;;;4.35;2.17;;;;;;;;;;4099474;28;20035;-59
2020/12/25 03:10:44;;;;;;;4.05;2.10;;;;;;;;;;4110843;28;20073;-57
2020/12/25 03:12:46;;;;;;;3.90;2.08;;;;;;;;;;4104098;28;20090;-59
2020/12/25 03:14:48;;;;;;;3.97;2.05;;;;;;;;;;4101653;28;20393;-58
2020/12/25 03:16:50;;;;;;;3.95;2.05;;;;;;;;;;4101763;28;20036;-57
2020/12/25 03:18:52;;;;;;;3.20;1.90;;;;;;;;;;4099113;28;20121;-58
2020/12/25 03:20:54;;;;;;;5.00;2.10;;;;;;;;;;4103571;28;20050;-59
2020/12/25 03:22:56;;;;;;;4.35;2.10;;;;;;;;;;4100995;28;20038;-59
2020/12/25 03:24:58;;;;;;;5.90;2.63;;;;;;;;;;4105333;28;20141;-58
2020/12/25 03:27:00;;;;;;;5.60;2.10;;;;;;;;;;4102837;28;20051;-58
2020/12/25 03:29:01;;;;;;;4.35;2.10;;;;;;;;;;4107493;28;20031;-58
2020/12/25 03:31:03;;;;;;;3.88;2.08;;;;;;;;;;4098805;28;20050;-58
2020/12/25 03:33:05;;;;;;;4.15;2.17;;;;;;;;;;4100419;28;20053;-58
2020/12/25 03:35:07;;;;;;;4.20;2.00;;;;;;;;;;4102375;28;20046;-58
2020/12/25 03:37:09;;;;;;;3.90;1.80;;;;;;;;;;4102770;28;20066;-59
2020/12/25 03:39:11;;;;;;;5.25;2.63;;;;;;;;;;4101471;28;20453;-58
2020/12/25 03:41:13;;;;;;;3.33;1.98;;;;;;;;;;4105542;28;21556;-59
2020/12/25 03:43:15;;;;;;;3.78;1.90;;;;;;;;;;4101793;28;20799;-57
2020/12/25 03:45:17;;;;;;;5.53;1.98;;;;;;;;;;4098097;28;20496;-59
2020/12/25 03:47:19;;;;;;;5.35;1.90;;;;;;;;;;4104403;28;20093;-57
2020/12/25 03:49:21;;;;;;;3.20;1.83;;;;;;;;;;4099271;28;20035;-57
2020/12/25 03:51:23;;;;;;;4.00;2.10;;;;;;;;;;4102615;28;20126;-54
2020/12/25 03:53:25;;;;;;;4.07;2.42;;;;;;;;;;4099069;28;20083;-59
2020/12/25 03:55:27;;;;;;;3.63;1.73;;;;;;;;;;4105049;28;20027;-57
2020/12/25 03:57:29;;;;;;;4.63;2.08;;;;;;;;;;4098977;28;20039;-58
2020/12/25 03:59:32;;;;;;;4.80;2.22;;;;;;;;;;4104769;28;20042;-57
2020/12/25 04:01:34;;;;;;;3.83;1.95;;;;;;;;;;4102305;28;20169;-59
2020/12/25 04:03:36;;;;;;;4.03;2.13;;;;;;;;;;4103685;28;20073;-59
2020/12/25 04:05:38;;;;;;;3.45;1.88;;;;;;;;;;4098731;28;20347;-58
2020/12/25 04:07:40;;;;;;;4.00;1.95;;;;;;;;;;4108170;28;20601;-59
2020/12/25 04:09:42;;;;;;;2.95;1.80;;;;;;;;;;4100718;28;20049;-59
2020/12/25 04:11:44;;;;;;;3.95;2.00;;;;;;;;;;4102475;28;20121;-59
2020/12/25 04:13:46;;;;;;;4.50;1.80;;;;;;;;;;4103972;28;20520;-58
2020/12/25 04:15:48;;;;;;;4.72;2.15;;;;;;;;;;4101407;28;20038;-59
2020/12/25 04:17:50;;;;;;;2.92;1.60;;;;;;;;;;4104122;28;20347;-58
2020/12/25 04:19:52;;;;;;;2.97;1.70;;;;;;;;;;4103666;28;20023;-59
2020/12/25 04:21:54;;;;;;;4.00;1.98;;;;;;;;;;4101244;28;20043;-59
2020/12/25 04:23:56;;;;;;;3.00;1.95;;;;;;;;;;4098858;28;20262;-55
2020/12/25 04:25:58;;;;;;;3.63;1.73;;;;;;;;;;4105164;28;20089;-59
2020/12/25 04:28:00;;;;;;;4.95;2.00;;;;;;;;;;4101436;28;20412;-58
2020/12/25 04:30:03;;;;;;;3.63;1.80;;;;;;;;;;4102011;28;20144;-57
2020/12/25 04:32:05;;;;;;;4.32;2.05;;;;;;;;;;4097167;28;20027;-57
2020/12/25 04:34:07;;;;;;;3.22;1.70;;;;;;;;;;4100495;28;20046;-59
2020/12/25 04:36:09;;;;;;;2.90;1.73;;;;;;;;;;4097452;28;20038;-59
2020/12/25 04:38:11;;;;;;;4.93;1.70;;;;;;;;;;4107950;28;20468;-57
2020/12/25 04:40:13;;;;;;;3.30;1.55;;;;;;;;;;4099837;28;20081;-58
2020/12/25 04:42:15;;;;;;;4.75;1.67;;;;;;;;;;4103965;28;20054;-58
2020/12/25 04:44:17;;;;;;;3.35;1.80;;;;;;;;;;4101345;28;20027;-56
2020/12/25 04:46:19;;;;;;;3.45;1.55;;;;;;;;;;4104228;28;20047;-58
2020/12/25 04:48:22;;;;;;;3.55;1.90;;;;;;;;;;4099639;28;20053;-58
2020/12/25 04:50:24;;;;;;;4.28;1.75;;;;;;;;;;4100848;28;20291;-58
2020/12/25 04:52:26;;;;;;;5.28;2.10;;;;;;;;;;4105047;28;20128;-55
2020/12/25 04:54:28;;;;;;;2.78;1.58;;;;;;;;;;4098311;28;20065;-57
2020/12/25 04:56:30;;;;;;;4.05;1.85;;;;;;;;;;4103813;28;20046;-58
2020/12/25 04:58:31;;;;;;;3.20;1.90;;;;;;;;;;4102507;28;20018;-57
2020/12/25 05:00:33;;;;;;;3.13;1.90;;;;;;;;;;4103778;28;20137;-58
2020/12/25 05:02:36;;;;;;;4.18;1.83;;;;;;;;;;4099909;28;20500;-57
2020/12/25 05:04:38;;;;;;;2.90;1.48;;;;;;;;;;4105311;28;20027;-58
2020/12/25 05:06:40;;;;;;;3.92;1.58;;;;;;;;;;4098460;28;20038;-58
2020/12/25 05:08:45;;;;;;;2.53;1.60;;;;;;;;;;4103870;28;20126;-56
2020/12/25 05:10:48;;;;;;;4.55;2.05;;;;;;;;;;4100781;28;20579;-58
2020/12/25 05:12:50;;;;;;;4.28;1.75;;;;;;;;;;4103382;28;20037;-57
2020/12/25 05:14:52;;;;;;;3.22;1.75;;;;;;;;;;4101325;28;20568;-56
2020/12/25 05:16:55;;;;;;;3.00;1.67;;;;;;;;;;4107740;28;20030;-58
2020/12/25 05:18:57;;;;;;;4.80;2.17;;;;;;;;;;4101107;28;20111;-58
2020/12/25 05:21:00;;;;;;;3.30;1.80;;;;;;;;;;4098406;28;20077;-56
2020/12/25 05:23:11;;;;;;;2.95;1.80;;;;;;;;;;4099112;28;20034;-59
2020/12/25 05:25:13;;;;;;;2.90;1.88;;;;;;;;;;4107410;28;20034;-55
2020/12/25 05:27:15;;;;;;;4.15;1.70;;;;;;;;;;4102852;28;20050;-58
2020/12/25 05:29:17;;;;;;;3.00;1.65;;;;;;;;;;4109902;28;20037;-59
2020/12/25 05:31:20;;;;;;;3.60;1.75;;;;;;;;;;4103571;28;20054;-60
2020/12/25 05:33:22;;;;;;;2.83;1.63;;;;;;;;;;4099662;28;20361;-58
2020/12/25 05:35:28;;;;;;;3.03;1.63;;;;;;;;;;4098137;28;20034;-59
2020/12/25 05:37:34;;;;;;;3.83;1.60;;;;;;;;;;4098788;28;20032;-60
2020/12/25 05:39:38;;;;;;;3.80;1.70;;;;;;;;;;4103271;28;20385;-59
2020/12/25 05:41:41;;;;;;;4.47;1.85;;;;;;;;;;4096861;28;20572;-60
2020/12/25 05:43:43;;;;;;;;;;;;;;;;;;4106353;28;20041;-57
2020/12/25 05:45:45;;;;;;;3.00;1.80;;;;;;;;;;4100913;28;19913;-58
2020/12/25 05:47:48;;;;;;;3.00;1.67;;;;;;;;;;4101165;28;20465;-58
2020/12/25 05:49:50;;;;;;;3.28;1.77;;;;;;;;;;4098015;28;20277;-58
2020/12/25 05:51:52;;;;;;;5.03;2.25;;;;;;;;;;4106673;28;20484;-58
2020/12/25 05:53:54;;;;;;;5.30;1.77;;;;;;;;;;4095065;28;20046;-58
2020/12/25 05:55:57;;;;;;;4.20;1.95;;;;;;;;;;4104900;28;20114;-58
2020/12/25 05:58:00;;;;;;;3.47;1.67;;;;;;;;;;4097157;28;20137;-58
2020/12/25 06:00:06;;;;;;;5.03;2.08;;;;;;;;;;4097706;28;20129;-58
2020/12/25 06:02:07;;;;;;;6.80;2.42;;;;;;;;;;4098322;28;20134;-53
2020/12/25 06:04:10;;;;;;;9.63;2.08;;;;;;;;;;4103225;28;20027;-54
2020/12/25 06:06:13;;;;;;;6.60;2.03;;;;;;;;;;4098272;28;20463;-53
2020/12/25 06:08:15;;;;;;;;;;;;;;;;;;4106179;28;20030;-54
2020/12/25 06:10:18;;;;;;;5.40;2.00;;;;;;;;;;4103213;28;19925;-53
2020/12/25 06:12:23;;;;;;;7.53;2.20;;;;;;;;;;4109207;28;20571;-53
2020/12/25 06:14:25;;;;;;;7.20;2.20;;;;;;;;;;4102583;28;20035;-50
2020/12/25 06:16:28;;;;;;;9.98;2.30;;;;;;;;;;4102190;28;20062;-50
2020/12/25 06:18:45;;;;;;;4.55;2.22;;;;;;;;;;4108964;28;20042;-55
2020/12/25 06:20:51;;;;;;;10.95;2.08;;;;;;;;;;4105874;28;20038;-54
2020/12/25 06:22:53;;;;;;;4.93;1.85;;;;;;;;;;4106772;28;20046;-50
2020/12/25 06:24:57;;;;;;;4.65;1.70;;;;;;;;;;4103425;28;20027;-55
2020/12/25 06:27:02;;;;;;;7.07;2.10;;;;;;;;;;4106592;28;20120;-50
2020/12/25 06:29:04;;;;;;;5.57;1.90;;;;;;;;;;4108474;28;20076;-53
2020/12/25 06:31:09;;;;;;;6.78;1.98;;;;;;;;;;4103690;28;20047;-49
2020/12/25 06:33:11;;;;;;;7.28;1.85;;;;;;;;;;4108552;28;20399;-48
2020/12/25 06:35:13;;;;;;;5.47;2.23;;;;;;;;;;4106252;28;20411;-54
2020/12/25 06:37:16;;;;;;;6.80;2.45;;;;;;;;;;4097852;28;20302;-50
2020/12/25 06:39:22;;;;;;;8.95;2.33;;;;;;;;;;4103309;28;20479;-49
2020/12/25 06:41:24;;;;;;;6.68;2.15;;;;;;;;;;4103893;28;20114;-59
2020/12/25 06:43:28;;;;;;;7.90;2.03;;;;;;;;;;4106580;28;20049;-58
2020/12/25 06:45:31;;;;;;;6.10;1.58;;;;;;;;;;4103955;28;20151;-57
2020/12/25 06:47:37;;;;;;;5.40;1.60;;;;;;;;;;4102744;28;20459;-53
2020/12/25 06:49:49;;;;;;;7.65;1.80;;;;;;;;;;4104232;28;20069;-59
2020/12/25 06:51:51;;;;;;;6.22;1.83;;;;;;;;;;4105972;28;20040;-59
2020/12/25 06:53:56;;;;;;;5.63;2.00;;;;;;;;;;4100021;28;20045;-60
2020/12/25 06:56:07;;;;;;;5.75;1.88;;;;;;;;;;4105718;28;20244;-61
2020/12/25 06:58:10;;;;;;;5.25;2.10;;;;;;;;;;4104563;28;20034;-60
2020/12/25 07:00:12;;;;;;;7.53;2.20;;;;;;;;;;4103187;28;20038;-60
2020/12/25 07:02:14;;;;;;;4.43;1.83;;;;;;;;;;4104310;28;20519;-60
2020/12/25 07:04:33;;;;;;;7.50;1.85;;;;;;;;;;4112911;28;20060;-60
2020/12/25 07:06:36;;;;;;;7.13;2.15;;;;;;;;;;4102336;28;20058;-61
2020/12/25 07:08:46;;;;;;;3.67;1.80;;;;;;;;;;4108902;28;20800;-61
2020/12/25 07:10:48;;;;;;;5.80;1.95;;;;;;;;;;4101625;28;20085;-60
2020/12/25 07:12:50;;;;;;;6.20;2.10;;;;;;;;;;4105415;28;20026;-60
2020/12/25 07:14:52;;;;;;;5.70;1.98;;;;;;;;;;4098328;28;20093;-61
2020/12/25 07:16:54;;;;;;;6.53;2.08;;;;;;;;;;4104733;28;20069;-60
2020/12/25 07:18:56;;;;;;;5.40;2.03;;;;;;;;;;4103286;28;20039;-61
2020/12/25 07:21:02;;;;;;;7.20;1.90;;;;;;;;;;4103694;28;20838;-61
2020/12/25 07:23:04;;;;;;;3.78;1.67;;;;;;;;;;4105589;28;20126;-60
2020/12/25 07:25:10;;;;;;;5.28;1.80;;;;;;;;;;4102501;28;20047;-58
2020/12/25 07:27:14;;;;;;;6.05;2.17;;;;;;;;;;4102657;28;20100;-62
2020/12/25 07:29:16;;;;;;;5.05;1.90;;;;;;;;;;4099895;28;20045;-63
2020/12/25 07:31:19;;;;;;;5.28;1.60;;;;;;;;;;4104445;28;20567;-64
2020/12/25 07:33:22;;;;;;;5.35;1.85;;;;;;;;;;4100335;28;20148;-61
2020/12/25 07:35:24;;;;;;;5.40;2.00;;;;;;;;;;4103915;28;20034;-64
2020/12/25 07:37:26;;;;;;;5.43;1.88;;;;;;;;;;4102678;28;20073;-64
2020/12/25 07:39:29;;;;;;;4.90;1.70;;;;;;;;;;4102526;28;20089;-62
2020/12/25 07:41:32;;;;;;;6.82;2.17;;;;;;;;;;4102108;28;20400;-61
2020/12/25 07:43:35;;;;;;;6.78;2.03;;;;;;;;;;4105552;28;20068;-59
2020/12/25 07:45:38;;;;;;;5.07;1.80;;;;;;;;;;4102179;28;20074;-59
2020/12/25 07:47:40;;;;;;;6.05;2.17;;;;;;;;;;4099729;28;20297;-61
2020/12/25 07:49:43;;;;;;;8.20;2.33;;;;;;;;;;4101043;28;20484;-61
2020/12/25 07:51:49;;;;;;;3.90;1.80;;;;;;;;;;4104011;28;20066;-59
2020/12/25 07:53:51;;;;;;;5.43;1.70;;;;;;;;;;4103536;28;20081;-59
2020/12/25 07:55:53;;;;;;;4.30;1.90;;;;;;;;;;4101910;28;20113;-60
2020/12/25 07:57:55;;;;;;;8.23;2.15;;;;;;;;;;4101525;28;20053;-62
2020/12/25 07:59:57;;;;;;;4.20;1.83;;;;;;;;;;4098471;28;20481;-62
2020/12/25 08:02:00;;;;;;;5.85;1.90;;;;;;;;;;4094075;28;20121;-61
2020/12/25 08:04:02;;;;;;;14.65;2.20;;;;;;;;;;4096377;28;20038;-59
2020/12/25 08:06:04;;;;;;;6.23;2.10;;;;;;;;;;4104467;28;20081;-59
2020/12/25 08:08:06;;;;;;;6.53;1.65;;;;;;;;;;4103051;28;20292;-60
2020/12/25 08:10:11;;;;;;;4.90;1.65;;;;;;;;;;4103093;28;20137;-61
2020/12/25 08:12:13;;;;;;;6.03;1.92;;;;;;;;;;4100512;28;20042;-59
2020/12/25 08:14:16;;;;;;;7.78;1.65;;;;;;;;;;4108305;28;20030;-59
2020/12/25 08:16:18;;;;;;;6.80;1.88;;;;;;;;;;4101115;28;20047;-60
2020/12/25 08:18:20;;;;;;;6.05;1.98;;;;;;;;;;4105617;28;20082;-61
2020/12/25 08:20:23;;;;;;;5.65;1.80;;;;;;;;;;4101140;28;20414;-59
2020/12/25 08:22:25;;;;;;;4.15;1.80;;;;;;;;;;4102140;28;20042;-58
2020/12/25 08:24:27;;;;;;;6.45;1.77;;;;;;;;;;4098988;28;20504;-57
2020/12/25 08:26:30;;;;;;;6.13;2.13;;;;;;;;;;4097416;28;20042;-58
2020/12/25 08:28:32;;;;;;;7.85;1.88;;;;;;;;;;4104722;28;20342;-57
2020/12/25 08:30:36;;;;;;;7.70;1.90;;;;;;;;;;4099605;28;20062;-60
2020/12/25 08:32:41;;;;;;;6.70;2.00;;;;;;;;;;4102801;28;20037;-59
2020/12/25 08:34:43;;;;;;;7.15;1.83;;;;;;;;;;4101480;28;20042;-58
2020/12/25 08:36:56;;;;;;;3.35;1.48;;;;;;;;;;4103440;28;20133;-58
2020/12/25 08:38:58;;;;;;;6.97;1.92;;;;;;;;;;4101487;28;20073;-59
2020/12/25 08:41:06;;;;;;;3.63;1.60;;;;;;;;;;4107327;28;20408;-60
2020/12/25 08:43:10;;;;;;;5.15;2.08;;;;;;;;;;4099339;28;20050;-59
2020/12/25 08:45:17;;;;;;;4.00;1.67;;;;;;;;;;4098180;28;20034;-55
2020/12/25 08:47:19;;;;;;;5.68;1.88;;;;;;;;;;4102108;28;20039;-59
2020/12/25 08:49:28;;;;;;;5.32;1.90;;;;;;;;;;4099681;28;24049;-59
2020/12/25 08:51:36;;;;;;;7.07;1.80;;;;;;;;;;4101810;28;20098;-52
2020/12/25 08:53:40;;;;;;;19.02;3.05;;;;;;;;;;4106637;28;20406;-53
2020/12/25 08:55:41;;;;;;;30.13;3.08;;;;;;;;;;4102767;28;20027;-55
2020/12/25 08:57:44;;;;;;;30.35;4.38;;;;;;;;;;4098470;28;20368;-58
2020/12/25 08:59:45;;;;;;;18.20;3.63;;;;;;;;;;4102298;28;20035;-59
2020/12/25 09:01:51;;;;;;;25.33;2.67;;;;;;;;;;4099218;28;20062;-61
2020/12/25 09:03:54;;;;;;;18.80;3.00;;;;;;;;;;4101156;28;20371;-59
2020/12/25 09:06:01;;;;;;;20.90;2.67;;;;;;;;;;4098895;28;20387;-60
2020/12/25 09:08:03;;;;;;;11.98;2.03;;;;;;;;;;4096079;28;20023;-59
2020/12/25 09:10:05;;;;;;;17.08;3.05;;;;;;;;;;4100756;28;20039;-58
2020/12/25 09:12:08;;;;;;;14.90;1.92;;;;;;;;;;4101944;28;20038;-61
2020/12/25 09:14:10;;;;;;;6.18;1.60;;;;;;;;;;4102381;28;20031;-62
2020/12/25 09:16:12;;;;;;;10.30;1.95;;;;;;;;;;4103648;28;20053;-59
2020/12/25 09:18:14;;;;;;;6.65;2.20;;;;;;;;;;4098084;28;20046;-61
2020/12/25 09:20:16;;;;;;;5.95;1.70;;;;;;;;;;4104929;28;20091;-59
2020/12/25 09:22:18;;;;;;;5.50;1.45;;;;;;;;;;4102648;28;20089;-59
2020/12/25 09:24:20;;;;;;;10.82;2.00;;;;;;;;;;4098804;28;20042;-56
2020/12/25 09:26:22;;;;;;;15.50;2.83;;;;;;;;;;4100106;28;20038;-58
2020/12/25 09:28:24;;;;;;;38.08;4.53;;;;;;;;;;4104059;28;20030;-59
2020/12/25 09:30:26;;;;;;;33.67;5.60;;;;;;;;;;4100744;28;20047;-62
2020/12/25 09:32:28;;;;;;;20.85;5.53;;;;;;;;;;4101665;28;20066;-60
2020/12/25 09:34:30;;;;;;;19.58;5.63;;;;;;;;;;4103458;28;20027;-61
2020/12/25 09:36:32;;;;;;;19.35;6.40;;;;;;;;;;4101595;28;20093;-62
2020/12/25 09:38:34;;;;;;;12.50;6.05;;;;;;;;;;4100154;28;20077;-58
2020/12/25 09:40:36;;;;;;;11.77;6.22;;;;;;;;;;4083984;28;20039;-59
2020/12/25 09:42:38;;;;;;;13.35;6.00;;;;;;;;;;4097031;28;20047;-59
2020/12/25 09:44:40;;;;;;;11.50;5.65;;;;;;;;;;4099259;28;20094;-59
2020/12/25 09:46:42;;;;;;;8.68;5.30;;;;;;;;;;4107608;28;20027;-60
2020/12/25 09:48:45;;;;;;;12.00;5.35;;;;;;;;;;4101645;28;20456;-59
2020/12/25 09:50:47;;;;;;;10.30;5.28;;;;;;;;;;4100942;28;20452;-61
2020/12/25 09:52:49;;;;;;;8.75;5.07;;;;;;;;;;4105431;28;20088;-60
2020/12/25 09:54:51;;;;;;;8.52;4.93;;;;;;;;;;4104301;28;20039;-58
2020/12/25 09:56:53;;;;;;;8.07;5.07;;;;;;;;;;4103008;28;20122;-56
2020/12/25 09:58:55;;;;;;;15.23;4.47;;;;;;;;;;4108471;28;20034;-55
2020/12/25 10:00:57;;;;;;;7.50;4.05;;;;;;;;;;4106162;28;20114;-57
2020/12/25 10:02:59;;;;;;;7.47;3.95;;;;;;;;;;4101815;28;20046;-56
2020/12/25 10:05:01;;;;;;;7.25;3.65;;;;;;;;;;4106692;28;20419;-56
2020/12/25 10:07:03;;;;;;;9.27;3.88;;;;;;;;;;4104065;28;20516;-56
2020/12/25 10:09:05;;;;;;;5.20;3.38;;;;;;;;;;4102675;28;20057;-56
2020/12/25 10:11:07;;;;;;;4.78;3.25;;;;;;;;;;4104871;28;20034;-56
2020/12/25 10:13:09;;;;;;;6.30;3.30;;;;;;;;;;4105919;28;20030;-58
2020/12/25 10:15:11;;;;;;;5.57;2.65;;;;;;;;;;4099989;28;20120;-59
2020/12/25 10:17:13;;;;;;;6.22;2.72;;;;;;;;;;4107081;28;20156;-59
2020/12/25 10:19:16;;;;;;;3.95;2.80;;;;;;;;;;4102472;28;20456;-58
2020/12/25 10:21:18;;;;;;;;;;;;;;;;;;4104351;28;20038;-53
2020/12/25 10:23:20;;;;;;;3.63;2.50;;;;;;;;;;4104125;28;19972;-59
2020/12/25 10:25:22;;;;;;;4.03;2.35;;;;;;;;;;4102679;28;20023;-59
2020/12/25 10:27:25;;;;;;;6.13;3.00;;;;;;;;;;4102387;28;20519;-48
2020/12/25 10:29:28;;;;;;;11.75;2.80;;;;;;;;;;4103712;28;20061;-50
2020/12/25 10:31:30;;;;;;;;;;;;;;;;;;4105530;28;20055;-49
2020/12/25 10:33:32;;;;;;;10.40;3.05;;;;;;;;;;4105177;28;20005;-52
2020/12/25 10:35:34;;;;;;;5.32;2.40;;;;;;;;;;4097985;28;20035;-57
2020/12/25 10:37:36;;;;;;;4.40;2.60;;;;;;;;;;4103078;28;20030;-52
2020/12/25 10:39:38;;;;;;;4.97;2.53;;;;;;;;;;4101901;28;20051;-45
2020/12/25 10:41:40;;;;;;;4.38;2.25;;;;;;;;;;4101581;28;20427;-46
2020/12/25 10:43:42;;;;;;;6.35;2.20;;;;;;;;;;4105726;28;20089;-51
2020/12/25 10:45:44;;;;;;;5.93;2.42;;;;;;;;;;4101825;28;20035;-50
2020/12/25 10:47:47;;;;;;;4.60;2.65;;;;;;;;;;4105468;28;20035;-49
2020/12/25 10:49:49;;;;;;;3.85;2.30;;;;;;;;;;4102353;28;20142;-50
2020/12/25 10:51:51;;;;;;;3.83;2.20;;;;;;;;;;4109597;28;20130;-48
2020/12/25 10:53:53;;;;;;;5.10;2.47;;;;;;;;;;4100416;28;20050;-50
2020/12/25 10:55:55;;;;;;;3.90;2.28;;;;;;;;;;4104874;28;20067;-54
2020/12/25 10:57:57;;;;;;;3.95;1.90;;;;;;;;;;4101765;28;20139;-49
2020/12/25 10:59:59;;;;;;;3.78;2.17;;;;;;;;;;4103478;28;20070;-50
2020/12/25 11:02:01;;;;;;;2.58;2.03;;;;;;;;;;4104757;28;20485;-48
2020/12/25 11:04:03;;;;;;;5.70;2.33;;;;;;;;;;4100977;28;20201;-48
2020/12/25 11:06:05;;;;;;;3.17;2.33;;;;;;;;;;4105643;28;20043;-47
2020/12/25 11:08:09;;;;;;;5.40;2.20;;;;;;;;;;4104489;28;20345;-49
2020/12/25 11:10:12;;;;;;;3.40;1.90;;;;;;;;;;4106402;28;20043;-50
2020/12/25 11:12:14;;;;;;;4.80;2.53;;;;;;;;;;4101793;28;20065;-59
2020/12/25 11:14:17;;;;;;;5.50;2.60;;;;;;;;;;4108085;28;20432;-51
2020/12/25 11:16:29;;;;;;;5.53;2.97;;;;;;;;;;4104249;28;20098;-48
2020/12/25 11:18:33;;;;;;;9.65;3.20;;;;;;;;;;4104189;28;20069;-45
2020/12/25 11:20:35;;;;;;;9.32;2.92;;;;;;;;;;4104502;28;20058;-52
2020/12/25 11:22:37;;;;;;;11.55;3.33;;;;;;;;;;4104185;28;20026;-53
2020/12/25 11:24:39;;;;;;;10.73;3.10;;;;;;;;;;4101918;28;20055;-48
2020/12/25 11:26:41;;;;;;;4.75;2.60;;;;;;;;;;4102025;28;20500;-48
2020/12/25 11:28:43;;;;;;;7.80;2.85;;;;;;;;;;4105032;28;20527;-46
2020/12/25 11:30:45;;;;;;;6.10;2.80;;;;;;;;;;4102596;28;20186;-50
2020/12/25 11:32:47;;;;;;;7.72;2.30;;;;;;;;;;4104093;28;20129;-52
2020/12/25 11:34:49;;;;;;;3.10;2.17;;;;;;;;;;4102997;28;20027;-53
2020/12/25 11:36:50;;;;;;;6.65;2.47;;;;;;;;;;4105734;28;20544;-49
2020/12/25 11:38:53;;;;;;;5.28;2.30;;;;;;;;;;4101720;28;21505;-50
2020/12/25 11:40:55;;;;;;;5.13;2.50;;;;;;;;;;4106572;28;20054;-47
2020/12/25 11:42:57;;;;;;;5.50;2.30;;;;;;;;;;4103821;28;20046;-47
2020/12/25 11:44:59;;;;;;;4.70;2.53;;;;;;;;;;4103324;28;20064;-48
2020/12/25 11:47:01;;;;;;;5.95;1.98;;;;;;;;;;4103825;28;20031;-46
2020/12/25 11:49:07;;;;;;;8.82;2.42;;;;;;;;;;4105318;28;20447;-52
2020/12/25 11:51:09;;;;;;;6.15;1.90;;;;;;;;;;4102371;28;20031;-47
2020/12/25 11:53:11;;;;;;;5.38;2.22;;;;;;;;;;4103077;28;20023;-49
2020/12/25 11:55:13;;;;;;;5.68;2.15;;;;;;;;;;4100982;28;20035;-52
2020/12/25 11:57:15;;;;;;;3.33;1.80;;;;;;;;;;4099687;28;20049;-45
2020/12/25 11:59:17;;;;;;;6.15;2.45;;;;;;;;;;4105935;28;20023;-50
2020/12/25 12:01:19;;;;;;;9.70;2.25;;;;;;;;;;4102830;28;20074;-47
2020/12/25 12:03:23;;;;;;;3.63;2.10;;;;;;;;;;4101703;28;20448;-50
2020/12/25 12:05:26;;;;;;;5.65;2.10;;;;;;;;;;4102136;28;20166;-48
2020/12/25 12:07:28;;;;;;;6.78;2.83;;;;;;;;;;4104060;28;20027;-48
2020/12/25 12:09:30;;;;;;;6.80;2.35;;;;;;;;;;4103866;28;20424;-45
2020/12/25 12:11:32;;;;;;;5.22;2.25;;;;;;;;;;4099791;28;20062;-52
2020/12/25 12:13:34;;;;;;;3.72;2.55;;;;;;;;;;4102770;28;20030;-48
2020/12/25 12:15:40;;;;;;;4.32;2.30;;;;;;;;;;4092704;28;20039;-49